Hlavní strana
METAR-TAF:

METAR-TAF

Letiště :

Montichiari

Brescia, Itálie

zeměpisná šířka: 45-24-02N, zeměpisná délka: 010-18-59E, výška: 104 m

Aktuální stav počasí

Zpráva byla vytvořena před 13 hodinami a 11 minutami, v 21:50 UTC
Bezvětří
Teplota 25°C
Vlhkost vzduchu 65%
Tlak 1017 hPa
Viditelnost 10 km a více
Žádná oblačnost pod 1500 m, nevyskytují se cumulonimby.

METAR: LIPO 192150Z 00000KT CAVOK 25/18 Q1017

Čas: 13:01 (11:01 UTC)

Předpověď počasí

Zpráva byla vytvořena před 12 hodinami a 1 minutami, v 23:00 UTC
Předpověď platná od 20 v 00 UTC do 20 v 24 UTC
vítr z různých směrů 5 kt
Viditelnost 10 km a více
Polojasno ve výšce 4000 ft
Pravděpodobnost 40% :
Dočasný
od 20 v 12 UTC do 20 v 17 UTC
bouřka, déšť

TAF: LIPO 192300Z 2000/2024 VRB05KT 9999 SCT040 PROB40 TEMPO 2012/2017 TSRA

Stav a předpovědi počasí z více než 4 000 letišť (zprávy METAR a TAF).

Červené a žluté tečky na mapě představují dostupné meteorologické stanice.

Když kurzor umístíte na tečku, zobrazí se název stanice.

Pak kliknutím zobrazíte stav a předpověď počasí.

Chcete-li změnit mapu, kliknutím na zelené tlačítko se znaménkem +mapu přiblížíte, kliknutím na zelené tlačítko se znaménkem – mapu oddálíte a kliknutím na zelené šipky přejdete na sousední mapy.


METAR-TAF: